Anderson, Alaska
Current Conditions -  °F | °C
As of 12:53 AM on Sunday 21 Dec 2014 (Local Time) from PANN Reporting Station
Clear Clear  
Wind Chill: -19°   Ceiling: Unl
Heat Index: -19°   Visibility: 10mi
Dew Point: -22°   Wind: 0mph
Humidity: 79%   Direction: NA
Pressure: 29.08"   Gusts: NA
Location:  64.34°N, 149.19°W
Report Text: PANN 210953Z AUTO 00000KT 10SM CLR M19/M22 A2908 RMK AO2 SLP865 T11941222 TSNO $
Loading
Personal Weather Stations






























Interactive Weather Map New forecast layout! Learn more

10-Day Weather Forecast

Advertisements
Track Severe Weather on mobile